createdAt,value
2022-08-03T00:01:46.127Z,25.18
2022-08-03T00:04:34.044Z,25.17
2022-08-03T00:07:20.414Z,25.13
2022-08-03T00:10:06.313Z,25.15
2022-08-03T00:12:53.144Z,25.11
2022-08-03T00:15:41.138Z,25.10
2022-08-03T00:18:26.874Z,25.10
2022-08-03T00:21:12.843Z,25.06
2022-08-03T00:23:59.026Z,25.02
2022-08-03T00:26:45.192Z,25.00
2022-08-03T00:29:31.391Z,24.96
2022-08-03T00:32:17.464Z,24.92
2022-08-03T00:35:08.040Z,24.89
2022-08-03T00:37:56.100Z,24.83
2022-08-03T00:40:45.202Z,24.85
2022-08-03T00:43:31.228Z,24.82
2022-08-03T00:46:21.403Z,24.82
2022-08-03T00:49:08.179Z,24.79
2022-08-03T00:51:54.153Z,24.80
2022-08-03T00:54:40.667Z,24.77
2022-08-03T00:57:26.577Z,24.77
2022-08-03T01:00:15.927Z,24.74
2022-08-03T01:03:02.854Z,24.76
2022-08-03T01:06:19.736Z,24.68
2022-08-03T01:09:56.138Z,24.66
2022-08-03T01:12:51.872Z,24.68
2022-08-03T01:15:48.108Z,24.66
2022-08-03T01:19:22.320Z,24.60
2022-08-03T01:22:30.425Z,24.63
2022-08-03T01:25:22.579Z,24.63
2022-08-03T01:28:36.473Z,24.60
2022-08-03T01:31:33.650Z,24.55
2022-08-03T01:34:48.221Z,24.55
2022-08-03T01:37:42.248Z,24.53
2022-08-03T01:40:27.993Z,24.44
2022-08-03T01:44:27.983Z,24.49
2022-08-03T01:46:23.725Z,24.47
2022-08-03T01:49:11.778Z,24.50
2022-08-03T01:52:05.007Z,24.48
2022-08-03T01:54:52.744Z,24.47
2022-08-03T01:58:06.126Z,24.48
2022-08-03T02:00:47.250Z,24.43
2022-08-03T02:03:37.061Z,24.47
2022-08-03T02:06:59.885Z,24.44
2022-08-03T02:09:30.303Z,24.44
2022-08-03T02:12:16.519Z,24.45
2022-08-03T02:15:03.831Z,24.45
2022-08-03T02:17:50.568Z,24.44
2022-08-03T02:20:39.045Z,24.46
2022-08-03T02:23:24.873Z,24.42
2022-08-03T02:26:14.234Z,24.40
2022-08-03T02:29:15.110Z,24.40
2022-08-03T02:32:04.473Z,24.38
2022-08-03T02:35:00.942Z,24.37
2022-08-03T02:37:56.631Z,24.30
2022-08-03T02:40:46.483Z,24.27
2022-08-03T02:43:56.832Z,24.24
2022-08-03T02:46:44.840Z,24.21
2022-08-03T02:49:42.055Z,24.11
2022-08-03T02:52:37.794Z,24.23
2022-08-03T02:55:25.586Z,24.24
2022-08-03T02:58:14.068Z,24.24
2022-08-03T03:01:00.447Z,24.23
2022-08-03T03:03:46.228Z,24.19
2022-08-03T03:06:34.662Z,24.14
2022-08-03T03:09:22.217Z,24.15
2022-08-03T03:12:08.974Z,24.15
2022-08-03T03:14:58.030Z,24.11
2022-08-03T03:17:44.606Z,24.09
2022-08-03T03:20:32.307Z,24.06
2022-08-03T03:23:18.223Z,24.07
2022-08-03T03:26:04.981Z,24.05
2022-08-03T03:28:51.027Z,24.02
2022-08-03T03:31:37.345Z,24.01
2022-08-03T03:34:25.302Z,24.01
2022-08-03T03:37:11.329Z,24.02
2022-08-03T03:39:57.315Z,24.00
2022-08-03T03:42:43.155Z,23.98
2022-08-03T03:45:29.357Z,23.96
2022-08-03T03:48:15.702Z,23.95
2022-08-03T03:51:02.122Z,23.95
2022-08-03T03:54:01.376Z,23.88
2022-08-03T03:56:53.996Z,23.91
2022-08-03T03:59:42.853Z,23.87
2022-08-03T04:02:28.909Z,23.91
2022-08-03T04:05:37.742Z,23.92
2022-08-03T04:08:44.459Z,23.91
2022-08-03T04:11:39.773Z,23.81
2022-08-03T04:14:33.207Z,23.91
2022-08-03T04:17:22.588Z,23.89
2022-08-03T04:20:11.954Z,23.91
2022-08-03T04:23:00.288Z,23.93
2022-08-03T04:25:46.752Z,23.89
2022-08-03T04:28:32.864Z,23.95
2022-08-03T04:31:21.329Z,23.94
2022-08-03T04:34:07.930Z,23.91
2022-08-03T04:36:58.773Z,23.97
2022-08-03T04:39:44.795Z,23.98
2022-08-03T04:42:32.258Z,23.99
2022-08-03T04:45:21.888Z,23.95
2022-08-03T04:48:10.806Z,23.93
2022-08-03T04:51:00.924Z,23.94
2022-08-03T04:53:47.093Z,23.95
2022-08-03T04:56:34.954Z,23.95
2022-08-03T04:59:24.431Z,23.94
2022-08-03T05:02:10.492Z,23.98
2022-08-03T05:04:56.650Z,24.00
2022-08-03T05:07:43.328Z,24.01
2022-08-03T05:10:29.926Z,24.02
2022-08-03T05:13:15.702Z,24.03
2022-08-03T05:16:06.204Z,24.02
2022-08-03T05:18:58.653Z,23.98
2022-08-03T05:21:52.448Z,23.98
2022-08-03T05:24:42.443Z,23.85
2022-08-03T05:27:35.006Z,23.95
2022-08-03T05:30:34.403Z,23.97
2022-08-03T05:33:20.438Z,23.98
2022-08-03T05:36:06.576Z,23.95
2022-08-03T05:38:53.221Z,23.93
2022-08-03T05:41:39.099Z,23.92
2022-08-03T05:44:25.792Z,23.98
2022-08-03T05:47:20.046Z,24.04
2022-08-03T05:50:13.007Z,23.92
2022-08-03T05:52:59.758Z,24.05
2022-08-03T05:55:51.307Z,24.14
2022-08-03T05:58:48.417Z,24.16
2022-08-03T06:01:34.310Z,24.20
2022-08-03T06:04:20.408Z,24.24
2022-08-03T06:07:06.221Z,24.30
2022-08-03T06:10:34.492Z,24.29
2022-08-03T06:13:09.431Z,24.33
2022-08-03T06:15:55.183Z,24.37
2022-08-03T06:18:41.213Z,24.39
2022-08-03T06:21:27.171Z,24.44
2022-08-03T06:24:13.349Z,24.47
2022-08-03T06:27:01.480Z,24.50
2022-08-03T06:29:47.112Z,24.54
2022-08-03T06:32:33.828Z,24.57
2022-08-03T06:35:19.983Z,24.56
2022-08-03T06:38:05.935Z,24.55
2022-08-03T06:40:57.161Z,24.59
2022-08-03T06:44:03.392Z,24.63
2022-08-03T06:46:55.918Z,24.67
2022-08-03T06:50:05.581Z,24.66
2022-08-03T06:52:51.543Z,24.79
2022-08-03T06:55:41.811Z,24.82
2022-08-03T06:58:29.585Z,24.88
2022-08-03T07:01:18.982Z,24.89
2022-08-03T07:04:06.214Z,24.92
2022-08-03T07:06:52.474Z,25.03
2022-08-03T07:09:38.473Z,25.06
2022-08-03T07:12:28.566Z,25.11
2022-08-03T07:15:20.600Z,25.11
2022-08-03T07:18:27.636Z,25.16
2022-08-03T07:21:17.126Z,25.21
2022-08-03T07:24:03.289Z,25.22
2022-08-03T07:26:49.129Z,25.28
2022-08-03T07:29:35.018Z,25.29
2022-08-03T07:32:21.112Z,25.33
2022-08-03T07:35:08.623Z,25.40
2022-08-03T07:37:55.245Z,25.45
2022-08-03T07:40:45.997Z,25.48
2022-08-03T07:43:32.195Z,25.53
2022-08-03T07:46:18.010Z,25.56
2022-08-03T07:49:03.840Z,25.60
2022-08-03T07:52:09.771Z,25.63
2022-08-03T07:54:55.747Z,25.65
2022-08-03T07:57:41.617Z,25.69
2022-08-03T08:00:27.834Z,25.70
2022-08-03T08:03:13.725Z,25.72
2022-08-03T08:05:59.929Z,25.75
2022-08-03T08:08:46.200Z,25.78
2022-08-03T08:11:34.880Z,25.80
2022-08-03T08:14:24.360Z,25.78
2022-08-03T08:17:10.820Z,25.87
2022-08-03T08:19:56.950Z,25.90
2022-08-03T08:22:44.112Z,25.90
2022-08-03T08:25:31.671Z,25.97
2022-08-03T08:28:30.226Z,26.01
2022-08-03T08:31:18.889Z,26.02
2022-08-03T08:34:05.776Z,26.08
2022-08-03T08:36:51.766Z,26.10
2022-08-03T08:39:37.677Z,26.16
2022-08-03T08:42:23.332Z,26.13
2022-08-03T08:45:10.220Z,26.23
2022-08-03T08:48:01.053Z,26.26
2022-08-03T08:50:49.187Z,26.28
2022-08-03T08:53:37.044Z,26.32
2022-08-03T08:56:25.651Z,26.35
2022-08-03T08:59:11.879Z,26.38
2022-08-03T09:01:58.906Z,26.41
2022-08-03T09:04:45.694Z,26.45
2022-08-03T09:07:31.895Z,26.49
2022-08-03T09:10:24.698Z,26.56
2022-08-03T09:13:13.027Z,26.57
2022-08-03T09:16:14.003Z,26.62
2022-08-03T09:19:13.002Z,26.66
2022-08-03T09:22:13.548Z,26.70
2022-08-03T09:25:23.435Z,26.77
2022-08-03T09:29:00.086Z,26.82
2022-08-03T09:31:32.195Z,26.86
2022-08-03T09:34:18.279Z,26.92
2022-08-03T09:37:15.760Z,26.96
2022-08-03T09:40:01.979Z,27.00
2022-08-03T09:42:57.775Z,27.02
2022-08-03T09:45:46.710Z,27.10
2022-08-03T09:48:37.397Z,27.16
2022-08-03T09:51:33.161Z,27.06
2022-08-03T09:54:33.301Z,27.23
2022-08-03T09:57:33.350Z,27.25
2022-08-03T10:00:19.885Z,27.26
2022-08-03T10:03:06.000Z,27.25
2022-08-03T10:05:54.943Z,27.26
2022-08-03T10:09:07.499Z,27.28
2022-08-03T10:11:53.735Z,27.28
2022-08-03T10:14:42.023Z,27.31
2022-08-03T10:17:28.155Z,27.33
2022-08-03T10:20:13.943Z,27.36
2022-08-03T10:23:00.420Z,27.39
2022-08-03T10:25:55.926Z,27.40
2022-08-03T10:28:47.783Z,27.41
2022-08-03T10:31:57.461Z,27.47
2022-08-03T10:34:44.862Z,27.50
2022-08-03T10:37:33.455Z,27.52
2022-08-03T10:40:39.499Z,27.61
2022-08-03T10:43:46.508Z,27.63
2022-08-03T10:46:33.931Z,27.77
2022-08-03T10:49:33.736Z,27.81
2022-08-03T10:52:31.827Z,27.87
2022-08-03T10:55:59.841Z,27.96
2022-08-03T10:58:57.184Z,28.01
2022-08-03T11:01:58.745Z,28.08
2022-08-03T11:04:46.908Z,28.10
2022-08-03T11:07:32.760Z,28.16
2022-08-03T11:10:47.345Z,28.17
2022-08-03T11:13:34.203Z,28.16
2022-08-03T11:16:23.485Z,28.19
2022-08-03T11:19:11.909Z,28.20
2022-08-03T11:21:59.534Z,28.22
2022-08-03T11:24:47.608Z,28.24
2022-08-03T11:27:34.257Z,28.27
2022-08-03T11:30:19.943Z,28.29
2022-08-03T11:33:05.811Z,28.32
2022-08-03T11:36:02.576Z,28.39
2022-08-03T11:39:16.684Z,28.51
2022-08-03T11:42:23.430Z,28.61
2022-08-03T11:45:10.114Z,28.70
2022-08-03T11:47:56.235Z,28.76
2022-08-03T11:50:45.371Z,28.81
2022-08-03T11:53:31.871Z,28.83
2022-08-03T11:56:17.715Z,28.85
2022-08-03T11:59:19.107Z,28.88
2022-08-03T12:02:08.166Z,28.97
2022-08-03T12:04:58.954Z,29.08
2022-08-03T12:08:04.316Z,29.19
2022-08-03T12:10:54.253Z,29.28
2022-08-03T12:14:35.762Z,29.32
2022-08-03T12:16:54.989Z,29.31
2022-08-03T12:19:44.190Z,29.34
2022-08-03T12:22:38.351Z,29.31
2022-08-03T12:25:39.363Z,29.22
2022-08-03T12:28:36.060Z,29.23
2022-08-03T12:31:24.967Z,29.20
2022-08-03T12:34:11.479Z,29.15
2022-08-03T12:36:57.929Z,29.16
2022-08-03T12:40:02.962Z,29.20
2022-08-03T12:42:51.638Z,29.30
2022-08-03T12:45:37.713Z,29.40
2022-08-03T12:48:23.765Z,29.55
2022-08-03T12:51:14.052Z,29.71
2022-08-03T12:54:00.930Z,29.87
2022-08-03T12:57:15.979Z,29.99
2022-08-03T13:00:28.707Z,30.15
2022-08-03T13:03:41.833Z,30.28
2022-08-03T13:06:25.106Z,30.46
2022-08-03T13:09:10.944Z,30.56
2022-08-03T13:12:10.773Z,30.75
2022-08-03T13:14:59.098Z,30.98
2022-08-03T13:17:44.831Z,31.21
2022-08-03T13:20:30.826Z,31.56
2022-08-03T13:23:22.591Z,31.93
2022-08-03T13:26:09.686Z,32.32
2022-08-03T13:28:55.941Z,32.75
2022-08-03T13:31:50.524Z,33.09
2022-08-03T13:34:38.757Z,33.48
2022-08-03T13:37:25.710Z,33.81
2022-08-03T13:40:11.971Z,34.01
2022-08-03T13:43:00.656Z,34.03
2022-08-03T13:45:51.268Z,33.96
2022-08-03T13:48:40.736Z,34.05
2022-08-03T13:51:27.010Z,34.03
2022-08-03T13:54:13.013Z,33.86
2022-08-03T13:58:01.040Z,33.58
2022-08-03T14:00:06.700Z,33.26
2022-08-03T14:02:54.001Z,32.98
2022-08-03T14:05:45.590Z,32.74
2022-08-03T14:08:31.862Z,32.81
2022-08-03T14:11:18.413Z,33.07
2022-08-03T14:14:04.496Z,33.48
2022-08-03T14:16:50.511Z,33.84
2022-08-03T14:19:52.420Z,34.32
2022-08-03T14:22:39.859Z,34.78
2022-08-03T14:25:25.792Z,35.18
2022-08-03T14:28:11.912Z,35.49
2022-08-03T14:30:58.026Z,35.82
2022-08-03T14:33:44.109Z,36.10
2022-08-03T14:36:29.950Z,36.36
2022-08-03T14:39:16.003Z,36.59
2022-08-03T14:42:02.181Z,36.83
2022-08-03T14:44:48.252Z,37.08
2022-08-03T14:47:34.526Z,37.35
2022-08-03T14:50:44.382Z,37.48
2022-08-03T14:53:31.476Z,37.63
2022-08-03T14:56:17.493Z,38.02
2022-08-03T14:59:03.667Z,38.50
2022-08-03T15:02:03.342Z,39.07
2022-08-03T15:04:52.901Z,39.85
2022-08-03T15:07:39.247Z,40.55
2022-08-03T15:10:27.107Z,41.28
2022-08-03T15:13:26.936Z,41.92
2022-08-03T15:16:12.809Z,42.38
2022-08-03T15:18:58.622Z,42.90
2022-08-03T15:21:47.030Z,43.43
2022-08-03T15:24:33.715Z,43.60
2022-08-03T15:27:19.992Z,43.03
2022-08-03T15:30:10.109Z,42.07
2022-08-03T15:32:56.526Z,41.70
2022-08-03T15:35:42.827Z,41.64
2022-08-03T15:38:28.788Z,41.49
2022-08-03T15:41:14.813Z,41.16
2022-08-03T15:44:06.203Z,40.59
2022-08-03T15:46:55.291Z,39.93
2022-08-03T15:49:41.557Z,39.35
2022-08-03T15:52:27.982Z,38.79
2022-08-03T15:55:15.473Z,38.27
2022-08-03T15:59:04.666Z,37.70
2022-08-03T16:01:09.272Z,37.15
2022-08-03T16:03:55.287Z,36.68
2022-08-03T16:06:42.578Z,36.27
2022-08-03T16:09:43.447Z,35.88
2022-08-03T16:12:29.864Z,35.48
2022-08-03T16:15:16.402Z,35.15
2022-08-03T16:18:02.434Z,34.85
2022-08-03T16:20:48.723Z,34.58
2022-08-03T16:23:37.879Z,34.32
2022-08-03T16:26:23.688Z,34.15
2022-08-03T16:29:23.262Z,33.96
2022-08-03T16:32:11.008Z,33.75
2022-08-03T16:34:56.933Z,33.59
2022-08-03T16:37:54.593Z,33.46
2022-08-03T16:40:42.802Z,33.31
2022-08-03T16:43:28.969Z,33.16
2022-08-03T16:46:14.869Z,33.06
2022-08-03T16:49:01.335Z,32.92
2022-08-03T16:51:50.098Z,32.82
2022-08-03T16:54:36.807Z,32.71
2022-08-03T16:57:59.343Z,32.61
2022-08-03T17:00:41.497Z,32.48
2022-08-03T17:03:27.843Z,32.36
2022-08-03T17:06:34.294Z,32.27
2022-08-03T17:09:21.122Z,32.19
2022-08-03T17:12:10.836Z,32.09
2022-08-03T17:14:57.494Z,32.03
2022-08-03T17:18:01.597Z,31.91
2022-08-03T17:20:50.983Z,31.79
2022-08-03T17:23:52.610Z,31.71
2022-08-03T17:26:46.416Z,31.61
2022-08-03T17:29:45.227Z,31.52
2022-08-03T17:32:33.962Z,31.44
2022-08-03T17:35:20.871Z,31.37
2022-08-03T17:38:11.917Z,31.28
2022-08-03T17:41:00.346Z,31.19
2022-08-03T17:44:15.244Z,31.13
2022-08-03T17:47:02.666Z,31.02
2022-08-03T17:49:49.407Z,30.99
2022-08-03T17:52:41.602Z,30.91
2022-08-03T17:55:57.653Z,30.86
2022-08-03T17:59:08.727Z,30.76
2022-08-03T18:02:47.483Z,30.73
2022-08-03T18:06:10.929Z,30.64
2022-08-03T18:08:50.211Z,30.61
2022-08-03T18:11:39.021Z,30.58
2022-08-03T18:14:57.731Z,30.50
2022-08-03T18:17:58.153Z,30.46
2022-08-03T18:20:48.693Z,30.38
2022-08-03T18:23:36.743Z,30.35
2022-08-03T18:26:23.924Z,30.28
2022-08-03T18:29:12.614Z,30.25
2022-08-03T18:32:06.063Z,30.20
2022-08-03T18:34:58.187Z,30.16
2022-08-03T18:37:51.802Z,30.09
2022-08-03T18:40:38.534Z,30.10
2022-08-03T18:43:46.759Z,30.03
2022-08-03T18:47:06.918Z,30.00
2022-08-03T18:50:03.032Z,29.95
2022-08-03T18:53:16.731Z,29.91
2022-08-03T18:56:19.026Z,29.76
2022-08-03T18:59:30.557Z,29.79
2022-08-03T19:02:34.204Z,29.74
2022-08-03T19:05:52.922Z,29.68
2022-08-03T19:08:44.696Z,29.63
2022-08-03T19:12:26.179Z,29.55
2022-08-03T19:15:10.515Z,29.50
2022-08-03T19:17:59.074Z,29.45
2022-08-03T19:20:46.746Z,29.38
2022-08-03T19:23:34.356Z,29.35
2022-08-03T19:26:31.227Z,29.29
2022-08-03T19:29:18.153Z,29.24
2022-08-03T19:32:09.128Z,29.17
2022-08-03T19:34:55.970Z,29.15
2022-08-03T19:37:44.568Z,29.10
2022-08-03T19:40:33.326Z,29.06
2022-08-03T19:43:53.658Z,28.98
2022-08-03T19:47:11.365Z,28.93
2022-08-03T19:50:13.851Z,28.93
2022-08-03T19:53:04.219Z,28.89
2022-08-03T19:55:54.498Z,28.86
2022-08-03T19:58:40.792Z,28.83
2022-08-03T20:01:28.168Z,28.77
2022-08-03T20:04:15.676Z,28.77
2022-08-03T20:07:04.559Z,28.74
2022-08-03T20:09:54.372Z,28.68
2022-08-03T20:12:46.723Z,28.66
2022-08-03T20:15:33.041Z,28.60
2022-08-03T20:18:27.280Z,28.56
2022-08-03T20:21:15.673Z,28.51
2022-08-03T20:24:24.746Z,28.51
2022-08-03T20:27:15.993Z,28.48
2022-08-03T20:30:07.467Z,28.46
2022-08-03T20:32:54.628Z,28.40
2022-08-03T20:35:45.925Z,28.38
2022-08-03T20:38:43.579Z,28.32
2022-08-03T20:41:33.152Z,28.33
2022-08-03T20:44:25.627Z,28.28
2022-08-03T20:47:14.062Z,28.24
2022-08-03T20:50:11.068Z,28.19
2022-08-03T20:52:59.282Z,28.16
2022-08-03T20:56:02.295Z,28.10
2022-08-03T20:58:51.313Z,28.09
2022-08-03T21:01:38.121Z,28.05
2022-08-03T21:04:24.175Z,27.97
2022-08-03T21:07:16.905Z,27.97
2022-08-03T21:10:06.024Z,27.92
2022-08-03T21:13:14.984Z,27.88
2022-08-03T21:16:13.808Z,27.81
2022-08-03T21:19:03.903Z,27.79
2022-08-03T21:21:53.422Z,27.76
2022-08-03T21:24:40.778Z,27.72
2022-08-03T21:27:30.287Z,27.68
2022-08-03T21:30:16.244Z,27.68
2022-08-03T21:33:02.381Z,27.63
2022-08-03T21:35:48.760Z,27.57
2022-08-03T21:38:36.058Z,27.56
2022-08-03T21:41:22.088Z,27.52
2022-08-03T21:44:08.682Z,27.48
2022-08-03T21:46:55.481Z,27.46
2022-08-03T21:50:05.456Z,27.41
2022-08-03T21:52:54.408Z,27.35
2022-08-03T21:55:43.663Z,27.33
2022-08-03T21:58:33.964Z,27.28
2022-08-03T22:01:22.745Z,27.23
2022-08-03T22:04:12.025Z,27.18
2022-08-03T22:07:19.934Z,27.11
2022-08-03T22:10:06.794Z,27.10
2022-08-03T22:12:52.885Z,27.07
2022-08-03T22:15:38.608Z,27.02
2022-08-03T22:18:24.510Z,26.99
2022-08-03T22:21:12.126Z,26.96
2022-08-03T22:23:59.950Z,26.91
2022-08-03T22:27:06.472Z,26.89
2022-08-03T22:29:53.321Z,26.86
2022-08-03T22:32:40.658Z,26.82
2022-08-03T22:35:27.868Z,26.80
2022-08-03T22:38:13.828Z,26.73
2022-08-03T22:41:00.012Z,26.71
2022-08-03T22:43:45.919Z,26.69
2022-08-03T22:46:33.170Z,26.62
2022-08-03T22:49:19.883Z,26.62
2022-08-03T22:52:06.240Z,26.59
2022-08-03T22:54:52.634Z,26.53
2022-08-03T22:57:39.101Z,26.49
2022-08-03T23:00:25.792Z,26.47
2022-08-03T23:03:12.351Z,26.49
2022-08-03T23:06:03.685Z,26.48
2022-08-03T23:08:50.766Z,26.47
2022-08-03T23:11:45.370Z,26.43
2022-08-03T23:14:36.770Z,26.40
2022-08-03T23:17:24.359Z,26.40
2022-08-03T23:20:10.257Z,26.36
2022-08-03T23:22:57.751Z,26.38
2022-08-03T23:25:43.721Z,26.35
2022-08-03T23:28:32.354Z,26.32
2022-08-03T23:31:18.412Z,26.34
2022-08-03T23:34:23.084Z,26.37
2022-08-03T23:37:09.508Z,26.32
2022-08-03T23:39:57.271Z,26.34
2022-08-03T23:42:45.386Z,26.32
2022-08-03T23:45:34.999Z,26.27
2022-08-03T23:48:21.126Z,26.29
2022-08-03T23:51:11.912Z,26.29
2022-08-03T23:54:04.291Z,26.27
2022-08-03T23:57:08.186Z,26.25
